Time;durP1;ratioP1;P1;durP2;ratioP2;P2;SDS_P1;SDS_P2;PMS_P1;PMS_P2;Temp;Humidity;BMP_temperature;BMP_pressure;BME280_temperature;BME280_humidity;BME280_pressure;Samples;Min_cycle;Max_cycle;Signal;HPM_P1;HPM_P2
2021/01/28 00:00:32;;;;;;;27.80;19.80;;;3.80;92.80;;;;;;5053055;28;20028;-47
2021/01/28 00:03:00;;;;;;;26.23;17.33;;;3.90;92.70;;;;;;5053392;28;20056;-45
2021/01/28 00:05:28;;;;;;;28.77;20.38;;;3.80;92.60;;;;;;5070426;28;20047;-47
2021/01/28 00:07:54;;;;;;;28.65;19.38;;;3.90;92.80;;;;;;5057088;28;20052;-46
2021/01/28 00:10:22;;;;;;;27.33;19.05;;;3.80;92.80;;;;;;5057297;28;20456;-46
2021/01/28 00:12:48;;;;;;;26.42;19.58;;;3.90;92.80;;;;;;5056761;28;20037;-47
2021/01/28 00:15:20;;;;;;;29.38;21.80;;;3.90;92.80;;;;;;5056941;28;20115;-47
2021/01/28 00:17:46;;;;;;;31.70;21.98;;;3.90;92.80;;;;;;5071970;28;20120;-46
2021/01/28 00:20:21;;;;;;;27.23;18.65;;;3.90;92.80;;;;;;5056745;28;20029;-48
2021/01/28 00:22:47;;;;;;;25.55;19.23;;;3.90;93.10;;;;;;5056887;28;20180;-47
2021/01/28 00:25:16;;;;;;;28.05;19.35;;;3.80;92.80;;;;;;5056850;28;20484;-47
2021/01/28 00:27:43;;;;;;;25.77;17.95;;;3.80;92.90;;;;;;5056638;28;20044;-47
2021/01/28 00:30:21;;;;;;;26.75;18.45;;;3.80;92.80;;;;;;5056889;28;20369;-47
2021/01/28 00:32:47;;;;;;;23.98;18.10;;;3.90;92.80;;;;;;5039334;28;20045;-46
2021/01/28 00:35:28;;;;;;;26.70;19.42;;;3.90;92.90;;;;;;5056393;28;20174;-46
2021/01/28 00:37:55;;;;;;;27.58;19.10;;;4.00;92.70;;;;;;5056582;28;20028;-48
2021/01/28 00:40:22;;;;;;;29.98;20.80;;;3.90;92.60;;;;;;5033195;28;20136;-46
2021/01/28 00:42:49;;;;;;;30.42;20.95;;;4.00;92.30;;;;;;5034061;28;20045;-47
2021/01/28 00:45:20;;;;;;;26.25;19.08;;;3.90;92.60;;;;;;5034056;28;20033;-47
2021/01/28 00:47:46;;;;;;;29.58;21.58;;;3.90;92.30;;;;;;5034175;28;20029;-47
2021/01/28 00:50:13;;;;;;;32.58;22.00;;;4.00;92.40;;;;;;5033999;28;20531;-47
2021/01/28 00:52:40;;;;;;;28.25;19.42;;;4.00;92.30;;;;;;5034570;28;20049;-47
2021/01/28 00:55:08;;;;;;;24.60;17.83;;;4.00;92.30;;;;;;5033948;28;20038;-47
2021/01/28 00:57:33;;;;;;;23.25;16.60;;;4.10;91.90;;;;;;4985902;28;20037;-45
2021/01/28 00:59:59;;;;;;;27.83;18.90;;;3.90;92.10;;;;;;5034203;28;20072;-48
2021/01/28 01:02:25;;;;;;;40.55;25.70;;;3.90;92.00;;;;;;5034111;28;20025;-47
2021/01/28 01:08:18;;;;;;;30.30;20.00;;;4.00;92.10;;;;;;5030350;28;20099;-48
2021/01/28 01:10:46;;;;;;;27.58;19.02;;;3.70;92.40;;;;;;5039231;28;20086;-48
2021/01/28 01:13:15;;;;;;;44.13;27.50;;;3.90;92.10;;;;;;5055541;28;20072;-47
2021/01/28 01:15:41;;;;;;;31.42;21.35;;;3.80;92.20;;;;;;5055682;28;20036;-47
2021/01/28 01:18:08;;;;;;;29.33;19.95;;;3.90;91.90;;;;;;5053596;28;20041;-47
2021/01/28 01:20:34;;;;;;;28.15;18.90;;;3.90;91.90;;;;;;5055993;28;20036;-47
2021/01/28 01:23:00;;;;;;;25.50;17.75;;;4.00;91.80;;;;;;5055918;28;20025;-47
2021/01/28 01:25:25;;;;;;;22.88;14.82;;;4.00;91.60;;;;;;5054389;28;20029;-46
2021/01/28 01:27:51;;;;;;;25.15;17.88;;;3.90;91.40;;;;;;5053662;28;20075;-48
2021/01/28 01:30:20;;;;;;;23.42;17.02;;;3.90;91.60;;;;;;5056042;28;20111;-47
2021/01/28 01:32:45;;;;;;;23.30;16.58;;;3.80;91.60;;;;;;5055445;28;20106;-48
2021/01/28 01:35:13;;;;;;;20.88;15.38;;;3.90;91.50;;;;;;5055672;28;20056;-48
2021/01/28 01:37:38;;;;;;;21.70;15.98;;;3.90;91.30;;;;;;5055647;28;20078;-47
2021/01/28 01:40:08;;;;;;;22.52;16.75;;;4.00;91.40;;;;;;5055687;28;20534;-48
2021/01/28 01:42:34;;;;;;;20.25;15.57;;;4.10;91.20;;;;;;5053562;28;20156;-48
2021/01/28 01:45:00;;;;;;;22.08;15.02;;;4.10;91.00;;;;;;5053487;28;20119;-47
2021/01/28 01:47:37;;;;;;;24.00;16.48;;;4.10;90.80;;;;;;5055114;28;20025;-47
2021/01/28 01:50:07;;;;;;;21.70;15.95;;;4.10;91.10;;;;;;5055403;28;20021;-48
2021/01/28 01:52:34;;;;;;;21.98;15.30;;;4.00;91.10;;;;;;5055029;28;20471;-47
2021/01/28 01:55:02;;;;;;;20.15;13.70;;;3.90;91.20;;;;;;5053929;28;20033;-47
2021/01/28 01:57:34;;;;;;;19.63;14.73;;;4.00;90.90;;;;;;5055009;28;20028;-48
2021/01/28 02:00:22;;;;;;;20.33;14.80;;;3.90;91.20;;;;;;5055340;28;20028;-47
2021/01/28 02:02:53;;;;;;;21.02;14.05;;;3.90;91.10;;;;;;5054927;28;20064;-47
2021/01/28 02:05:27;;;;;;;21.20;16.55;;;3.80;91.20;;;;;;5054934;28;20095;-47
2021/01/28 02:07:53;;;;;;;20.95;16.15;;;3.90;91.50;;;;;;5055022;28;20025;-48
2021/01/28 02:10:20;;;;;;;24.05;16.60;;;3.90;91.40;;;;;;5054563;28;20029;-47
2021/01/28 02:12:46;;;;;;;21.45;15.60;;;4.00;91.30;;;;;;5054979;28;20036;-47
2021/01/28 02:15:12;;;;;;;21.15;15.07;;;4.10;91.00;;;;;;5054593;28;20025;-47
2021/01/28 02:17:41;;;;;;;20.25;14.80;;;4.20;91.20;;;;;;5052461;28;20037;-47
2021/01/28 02:20:07;;;;;;;20.55;14.27;;;4.10;90.90;;;;;;5054781;28;20091;-48
2021/01/28 02:22:45;;;;;;;19.08;13.95;;;4.10;91.00;;;;;;5069310;28;20032;-47
2021/01/28 02:25:21;;;;;;;21.67;15.05;;;4.20;90.60;;;;;;5054527;28;20037;-47
2021/01/28 02:27:47;;;;;;;19.00;14.75;;;4.10;90.90;;;;;;5054887;28;20025;-46
2021/01/28 02:30:16;;;;;;;17.95;12.95;;;4.30;90.80;;;;;;5054619;28;20029;-48
2021/01/28 02:32:47;;;;;;;16.92;12.82;;;4.30;90.70;;;;;;5035205;28;20040;-47
2021/01/28 02:35:13;;;;;;;18.88;13.50;;;4.30;90.70;;;;;;5052118;28;20064;-48
2021/01/28 02:37:39;;;;;;;16.48;12.52;;;4.30;90.50;;;;;;5052222;28;20518;-47
2021/01/28 02:40:06;;;;;;;18.67;13.05;;;4.30;90.40;;;;;;5052143;28;20029;-48
2021/01/28 02:42:33;;;;;;;21.35;14.20;;;4.30;90.40;;;;;;5035004;28;20099;-46
2021/01/28 02:44:59;;;;;;;16.05;12.35;;;4.20;90.50;;;;;;5052008;28;20033;-48
2021/01/28 02:47:26;;;;;;;18.88;14.38;;;4.10;90.70;;;;;;5051700;28;20037;-48
2021/01/28 02:49:52;;;;;;;19.52;13.07;;;4.10;90.70;;;;;;5051909;28;20029;-48
2021/01/28 02:52:19;;;;;;;16.98;12.73;;;4.20;90.90;;;;;;5051937;28;20112;-47
2021/01/28 02:54:47;;;;;;;16.75;12.30;;;4.10;90.40;;;;;;5051810;28;20090;-49
2021/01/28 02:57:14;;;;;;;18.00;12.18;;;4.30;90.30;;;;;;5051563;28;20052;-47
2021/01/28 02:59:41;;;;;;;17.85;12.15;;;4.30;89.90;;;;;;5048952;28;20029;-47
2021/01/28 03:02:10;;;;;;;17.33;12.70;;;4.30;90.20;;;;;;5051596;28;20035;-48
2021/01/28 03:04:35;;;;;;;18.20;12.93;;;4.40;89.80;;;;;;5051514;28;20485;-47
2021/01/28 03:07:03;;;;;;;15.52;12.20;;;4.40;89.90;;;;;;5051487;28;20031;-47
2021/01/28 03:09:29;;;;;;;17.63;12.27;;;4.50;89.50;;;;;;5048904;28;20033;-48
2021/01/28 03:11:54;;;;;;;16.20;11.80;;;4.50;89.70;;;;;;5053708;28;20021;-48
2021/01/28 03:14:20;;;;;;;14.57;11.77;;;4.40;90.10;;;;;;5053745;28;20037;-48
2021/01/28 03:16:46;;;;;;;16.52;12.40;;;4.40;89.90;;;;;;5051512;28;20045;-47
2021/01/28 03:19:12;;;;;;;16.85;12.35;;;4.40;90.10;;;;;;5053809;28;20052;-48
2021/01/28 03:21:37;;;;;;;15.98;11.90;;;4.30;89.70;;;;;;5068318;28;20072;-48
2021/01/28 03:24:05;;;;;;;16.58;12.02;;;4.40;90.10;;;;;;5053645;28;20033;-47
2021/01/28 03:26:30;;;;;;;16.02;12.07;;;4.50;89.70;;;;;;5053426;28;20424;-47
2021/01/28 03:28:56;;;;;;;15.85;11.35;;;4.50;89.60;;;;;;5053708;28;20082;-47
2021/01/28 03:31:22;;;;;;;18.42;12.38;;;4.50;89.20;;;;;;5053311;28;20108;-47
2021/01/28 03:33:48;;;;;;;16.77;11.77;;;4.50;89.40;;;;;;5053416;28;20043;-47
2021/01/28 03:36:13;;;;;;;15.75;11.55;;;4.50;89.40;;;;;;5053641;28;20075;-47
2021/01/28 03:38:39;;;;;;;15.90;11.57;;;4.40;89.30;;;;;;5050826;28;20079;-48
2021/01/28 03:41:05;;;;;;;15.65;11.68;;;4.50;89.30;;;;;;5053227;28;20033;-48
2021/01/28 03:43:31;;;;;;;16.40;11.93;;;4.60;89.10;;;;;;5053780;28;20044;-47
2021/01/28 03:45:57;;;;;;;15.82;11.90;;;4.60;89.00;;;;;;5053329;28;20124;-47
2021/01/28 03:48:23;;;;;;;15.55;11.50;;;4.60;89.20;;;;;;5053413;28;20112;-47
2021/01/28 03:50:49;;;;;;;17.70;13.90;;;4.40;89.90;;;;;;5053393;28;20029;-47
2021/01/28 03:53:15;;;;;;;15.57;12.05;;;4.40;89.70;;;;;;5053190;28;20037;-48
2021/01/28 03:55:41;;;;;;;16.13;12.45;;;4.50;89.70;;;;;;5053245;28;20032;-47
2021/01/28 03:58:06;;;;;;;15.07;11.73;;;4.50;89.60;;;;;;5051258;28;20373;-47
2021/01/28 04:00:34;;;;;;;13.82;11.00;;;4.50;89.50;;;;;;5053120;28;20029;-48
2021/01/28 04:03:00;;;;;;;15.30;11.10;;;4.60;88.80;;;;;;5053477;28;20033;-48
2021/01/28 04:05:26;;;;;;;14.25;11.43;;;4.70;89.00;;;;;;5053392;28;20029;-48
2021/01/28 04:07:52;;;;;;;13.35;11.25;;;4.70;88.80;;;;;;5067035;28;20374;-47
2021/01/28 04:10:24;;;;;;;15.57;11.45;;;4.80;88.90;;;;;;5053366;28;20120;-47
2021/01/28 04:12:50;;;;;;;14.60;10.98;;;4.80;88.40;;;;;;5053152;28;20108;-47
2021/01/28 04:15:17;;;;;;;14.10;11.85;;;4.80;88.50;;;;;;5051106;28;20119;-47
2021/01/28 04:17:43;;;;;;;16.42;11.98;;;4.90;88.40;;;;;;5067546;28;20040;-47
2021/01/28 04:20:10;;;;;;;23.20;15.98;;;4.90;87.80;;;;;;5053334;28;20048;-47
2021/01/28 04:22:37;;;;;;;17.42;11.68;;;4.90;87.30;;;;;;5050837;28;20030;-47
2021/01/28 04:25:04;;;;;;;15.15;11.63;;;5.00;87.60;;;;;;5052986;28;20033;-47
2021/01/28 04:27:30;;;;;;;14.48;11.73;;;4.90;87.20;;;;;;5034363;28;20041;-48
2021/01/28 04:29:55;;;;;;;22.55;17.30;;;4.90;87.80;;;;;;5053000;28;20029;-47
2021/01/28 04:32:21;;;;;;;16.20;12.18;;;4.80;87.90;;;;;;5052793;28;20105;-47
2021/01/28 04:34:47;;;;;;;16.35;12.63;;;4.80;87.30;;;;;;5051064;28;20045;-47
2021/01/28 04:37:13;;;;;;;15.32;12.05;;;4.70;87.40;;;;;;5052795;28;20167;-48
2021/01/28 04:39:41;;;;;;;15.15;11.73;;;4.60;87.80;;;;;;5051772;28;20174;-47
2021/01/28 04:42:18;;;;;;;18.33;13.52;;;4.60;87.40;;;;;;5051921;28;20896;-47
2021/01/28 04:44:44;;;;;;;16.98;11.85;;;4.60;87.10;;;;;;5051638;28;20025;-47
2021/01/28 04:47:16;;;;;;;14.63;11.50;;;4.60;87.30;;;;;;5051241;28;20039;-48
2021/01/28 04:49:53;;;;;;;15.88;11.82;;;4.50;87.50;;;;;;5051616;28;20025;-47
2021/01/28 04:52:20;;;;;;;14.20;11.05;;;4.40;87.50;;;;;;5053757;28;20048;-48
2021/01/28 04:54:47;;;;;;;16.08;11.10;;;4.40;87.60;;;;;;5055104;28;20059;-47
2021/01/28 04:57:13;;;;;;;14.50;11.75;;;4.40;87.40;;;;;;5055049;28;20029;-47
2021/01/28 04:59:47;;;;;;;14.65;10.88;;;4.30;87.40;;;;;;5055074;28;20120;-48
2021/01/28 05:02:18;;;;;;;15.07;11.02;;;4.30;87.40;;;;;;5055117;28;20534;-47
2021/01/28 05:05:06;;;;;;;15.07;11.02;;;4.40;86.90;;;;;;5069599;28;20036;-47
2021/01/28 05:07:36;;;;;;;15.60;11.10;;;4.40;87.10;;;;;;5054302;28;20048;-47
2021/01/28 05:10:37;;;;;;;17.45;11.75;;;4.40;87.30;;;;;;5054730;28;20412;-47
2021/01/28 05:13:05;;;;;;;14.65;11.23;;;4.50;87.00;;;;;;5054633;28;20183;-47
2021/01/28 05:15:37;;;;;;;15.30;11.20;;;4.60;86.50;;;;;;5054738;28;20029;-47
2021/01/28 05:18:04;;;;;;;14.40;10.75;;;4.60;85.80;;;;;;5052333;28;20459;-47
2021/01/28 05:20:31;;;;;;;16.20;11.43;;;4.60;85.90;;;;;;5054688;28;20127;-47
2021/01/28 05:23:04;;;;;;;14.48;11.68;;;4.60;85.90;;;;;;5068728;28;20083;-47
2021/01/28 05:25:40;;;;;;;16.65;12.70;;;4.60;86.00;;;;;;5054617;28;20067;-48
2021/01/28 05:28:29;;;;;;;17.20;12.13;;;4.50;86.80;;;;;;5054449;28;20032;-47
2021/01/28 05:30:55;;;;;;;19.27;14.90;;;4.60;86.60;;;;;;5052219;28;20523;-48
2021/01/28 05:33:32;;;;;;;15.55;13.75;;;4.60;86.10;;;;;;5054281;28;20552;-48
2021/01/28 05:36:11;;;;;;;18.00;13.35;;;4.70;86.00;;;;;;5054278;28;20032;-48
2021/01/28 05:38:41;;;;;;;19.75;15.00;;;4.70;85.50;;;;;;5052014;28;20477;-47
2021/01/28 05:41:24;;;;;;;30.25;17.90;;;4.80;84.80;;;;;;5054185;28;20033;-47
2021/01/28 05:43:49;;;;;;;15.27;11.02;;;4.90;84.60;;;;;;5054378;28;20053;-47
2021/01/28 05:46:25;;;;;;;15.90;11.75;;;4.90;84.00;;;;;;5054254;28;20033;-48
2021/01/28 05:49:07;;;;;;;16.02;11.70;;;4.90;83.40;;;;;;5055754;28;20032;-47
2021/01/28 05:51:41;;;;;;;17.67;11.40;;;4.90;83.10;;;;;;5055300;28;20028;-48
2021/01/28 05:54:29;;;;;;;14.70;11.05;;;4.80;82.90;;;;;;5055239;28;20083;-48
2021/01/28 05:57:02;;;;;;;14.40;11.07;;;4.80;82.80;;;;;;5054804;28;20401;-48
2021/01/28 05:59:52;;;;;;;16.48;12.38;;;4.80;82.60;;;;;;5054961;28;20183;-48
2021/01/28 06:02:23;;;;;;;16.60;12.20;;;4.60;82.80;;;;;;5054983;28;20032;-47
2021/01/28 06:05:10;;;;;;;13.93;10.35;;;4.70;82.80;;;;;;5069494;28;20381;-47
2021/01/28 06:08:05;;;;;;;15.63;10.70;;;4.70;83.30;;;;;;5054662;28;20384;-47
2021/01/28 06:10:46;;;;;;;16.92;12.25;;;4.70;83.40;;;;;;5032663;28;20036;-47
2021/01/28 06:13:45;;;;;;;14.27;11.05;;;4.70;83.50;;;;;;5032599;28;20520;-48
2021/01/28 06:16:20;;;;;;;25.17;16.98;;;4.60;83.70;;;;;;5015758;28;20030;-47
2021/01/28 06:18:56;;;;;;;45.80;28.98;;;4.50;83.40;;;;;;5032662;28;20432;-47
2021/01/28 06:21:46;;;;;;;28.35;21.48;;;4.50;83.30;;;;;;4984430;28;20078;-47
2021/01/28 06:24:22;;;;;;;36.83;29.88;;;4.60;83.00;;;;;;5015694;28;20583;-48
2021/01/28 06:27:24;;;;;;;41.20;29.67;;;4.60;83.00;;;;;;5032381;28;20041;-47
2021/01/28 06:30:05;;;;;;;26.45;21.15;;;4.50;83.00;;;;;;5032121;28;20500;-47
2021/01/28 06:32:50;;;;;;;27.63;20.92;;;4.60;83.60;;;;;;5032209;28;20041;-47
2021/01/28 06:35:40;;;;;;;139.95;90.90;;;4.60;83.40;;;;;;5032084;28;20052;-47
2021/01/28 06:38:38;;;;;;;59.00;41.80;;;4.50;83.60;;;;;;5031758;28;20033;-47
2021/01/28 06:41:09;;;;;;;78.65;56.95;;;5.10;83.10;;;;;;5031819;28;20049;-47
2021/01/28 06:43:45;;;;;;;72.05;54.20;;;;;;;;;;5031670;28;20022;-48
2021/01/28 06:46:53;;;;;;;54.08;41.05;;;8.20;75.00;;;;;;5019691;28;20033;-47
2021/01/28 06:49:43;;;;;;;48.95;36.05;;;10.20;65.90;;;;;;5031795;28;20103;-48
2021/01/28 06:52:12;;;;;;;49.70;39.17;;;;;;;;;;5031542;28;20044;-47
2021/01/28 06:54:43;;;;;;;34.35;29.00;;;13.30;57.20;;;;;;5031773;28;20037;-47
2021/01/28 06:57:36;;;;;;;33.38;24.05;;;14.00;51.00;;;;;;5031551;28;20037;-48
2021/01/28 07:00:20;;;;;;;23.60;17.10;;;14.00;49.10;;;;;;5014967;28;20096;-47
2021/01/28 07:02:51;;;;;;;21.23;16.92;;;14.30;50.90;;;;;;5031744;28;20038;-48
2021/01/28 07:05:56;;;;;;;23.95;19.13;;;15.20;45.90;;;;;;5014933;28;20124;-45
2021/01/28 07:08:50;;;;;;;23.90;21.35;;;15.10;47.60;;;;;;4932737;29;20562;-48
2021/01/28 07:11:27;;;;;;;30.35;24.33;;;17.30;46.90;;;;;;4930895;29;20603;-48
2021/01/28 07:13:52;;;;;;;34.28;26.55;;;19.10;59.70;;;;;;4943456;28;20111;-46
2021/01/28 07:16:36;;;;;;;43.65;34.88;;;20.10;39.10;;;;;;4933051;29;20590;-47
2021/01/28 07:19:07;;;;;;;59.42;46.10;;;21.00;36.60;;;;;;4932859;29;20039;-48
2021/01/28 07:21:41;;;;;;;44.97;37.08;;;;;;;;;;4939898;29;20034;-49
2021/01/28 07:24:31;;;;;;;34.65;30.92;;;22.30;33.70;;;;;;4936145;29;20032;-48
2021/01/28 07:27:03;;;;;;;24.52;21.77;;;23.30;34.70;;;;;;4966418;28;20399;-49
2021/01/28 07:29:32;;;;;;;26.63;22.25;;;;;;;;;;4971057;28;20034;-48
2021/01/28 07:32:09;;;;;;;21.83;18.65;;;24.50;31.00;;;;;;4954677;28;20391;-49
2021/01/28 07:34:36;;;;;;;15.95;12.95;;;24.80;31.10;;;;;;4975667;28;20068;-48
2021/01/28 07:37:23;;;;;;;13.95;11.38;;;25.00;30.80;;;;;;4982545;28;20034;-49
2021/01/28 07:39:49;;;;;;;14.18;10.02;;;;;;;;;;4974228;28;20042;-49
2021/01/28 07:42:31;;;;;;;12.63;11.10;;;25.40;29.20;;;;;;4972285;28;20043;-48
2021/01/28 07:45:28;;;;;;;13.05;9.25;;;25.10;29.40;;;;;;4977767;28;20056;-48
2021/01/28 07:47:56;;;;;;;8.65;7.68;;;;;;;;;;5053094;28;20071;-48
2021/01/28 07:50:28;;;;;;;8.93;7.35;;;26.20;29.20;;;;;;5053101;28;20036;-49
2021/01/28 07:52:54;;;;;;;5.97;5.43;;;26.60;28.70;;;;;;5053007;28;20041;-49
2021/01/28 07:55:41;;;;;;;6.25;5.30;;;27.20;28.00;;;;;;5067697;28;20131;-48
2021/01/28 07:58:33;;;;;;;6.13;5.63;;;27.50;27.10;;;;;;5053153;28;20037;-48
2021/01/28 08:13:31;;;;;;;7.13;6.50;;;29.20;35.30;;;;;;5110268;27;20396;-46
2021/01/28 08:16:06;;;;;;;6.93;5.93;;;28.20;25.90;;;;;;5111321;28;20020;-45
2021/01/28 08:18:43;;;;;;;9.60;8.90;;;27.90;25.50;;;;;;5048480;28;20079;-46
2021/01/28 08:21:11;;;;;;;7.07;5.75;;;27.80;25.60;;;;;;5048322;28;20107;-46
2021/01/28 08:23:42;;;;;;;6.20;5.60;;;27.90;25.40;;;;;;5048329;28;20041;-46
2021/01/28 08:26:38;;;;;;;5.40;4.90;;;27.50;25.60;;;;;;5048394;28;20495;-46
2021/01/28 08:29:24;;;;;;;6.50;5.90;;;27.40;25.50;;;;;;4980183;28;20485;-46
2021/01/28 08:31:56;;;;;;;5.65;5.13;;;27.60;25.60;;;;;;5008337;28;20034;-46
2021/01/28 08:34:25;;;;;;;6.68;5.95;;;27.50;25.30;;;;;;5008821;28;20469;-47
2021/01/28 08:36:52;;;;;;;5.40;4.93;;;27.40;25.20;;;;;;5008569;28;20065;-46
2021/01/28 08:39:33;;;;;;;5.78;5.28;;;27.20;25.00;;;;;;5008687;28;20034;-46
2021/01/28 08:42:01;;;;;;;6.00;5.50;;;27.50;25.00;;;;;;5008521;28;20061;-46
2021/01/28 08:44:28;;;;;;;6.75;5.90;;;27.40;24.80;;;;;;5008565;28;20651;-46
2021/01/28 08:47:19;;;;;;;5.93;5.43;;;28.00;25.00;;;;;;5008461;28;20214;-46
2021/01/28 08:49:58;;;;;;;7.63;6.97;;;28.00;24.60;;;;;;5020650;28;20033;-47
2021/01/28 08:52:24;;;;;;;7.68;6.28;;;28.60;25.00;;;;;;5028042;28;20073;-46
2021/01/28 08:54:50;;;;;;;9.55;8.65;;;;;;;;;;5025937;28;20404;-48
2021/01/28 08:57:19;;;;;;;10.32;9.35;;;28.70;61.80;;;;;;4983506;28;20034;-47
2021/01/28 08:59:52;;;;;;;10.07;7.80;;;28.60;24.20;;;;;;5008274;28;20066;-47
2021/01/28 09:02:24;;;;;;;10.70;5.70;;;28.40;24.50;;;;;;5007979;28;20041;-46
2021/01/28 09:05:04;;;;;;;6.60;6.07;;;28.50;24.20;;;;;;5013935;28;20026;-47
2021/01/28 09:07:51;;;;;;;9.32;8.43;;;28.30;24.50;;;;;;5069683;28;20025;-46
2021/01/28 09:10:40;;;;;;;10.75;8.23;;;28.40;24.40;;;;;;5069734;28;20073;-46
2021/01/28 09:13:12;;;;;;;11.20;8.93;;;27.90;24.80;;;;;;5034359;28;20051;-47
2021/01/28 09:15:37;;;;;;;;;;;27.20;24.60;;;;;;4985969;28;20053;-47
2021/01/28 09:18:13;;;;;;;9.35;8.65;;;27.30;24.70;;;;;;5036558;28;19905;-47
2021/01/28 09:20:39;;;;;;;11.75;10.50;;;27.40;24.40;;;;;;5036051;28;20025;-47
2021/01/28 09:23:11;;;;;;;26.85;10.25;;;27.20;24.50;;;;;;5034838;28;20033;-47
2021/01/28 09:25:38;;;;;;;11.75;10.60;;;27.10;24.80;;;;;;5001511;28;20033;-47
2021/01/28 09:28:13;;;;;;;15.48;12.60;;;27.70;25.00;;;;;;5001151;28;20034;-46
2021/01/28 09:30:51;;;;;;;18.95;17.33;;;26.80;24.00;;;;;;4985177;28;20030;-44
2021/01/28 09:33:39;;;;;;;10.27;9.57;;;27.30;24.60;;;;;;5032953;28;20053;-45
2021/01/28 09:36:18;;;;;;;10.43;7.43;;;27.10;24.20;;;;;;4985038;28;20068;-44
2021/01/28 09:39:15;;;;;;;16.77;14.05;;;26.90;24.30;;;;;;5016542;28;20112;-45
2021/01/28 09:41:50;;;;;;;20.90;17.40;;;26.20;24.10;;;;;;5035751;28;20475;-45
2021/01/28 09:44:52;;;;;;;22.95;21.70;;;26.00;24.90;;;;;;5001219;28;20385;-45
2021/01/28 09:47:28;;;;;;;14.50;13.57;;;24.80;24.50;;;;;;5036283;28;20037;-45
2021/01/28 09:50:01;;;;;;;18.48;16.95;;;25.20;24.60;;;;;;5035716;28;20037;-45
2021/01/28 09:52:32;;;;;;;10.30;9.48;;;25.20;25.40;;;;;;5017106;28;20473;-45
2021/01/28 09:55:01;;;;;;;14.25;10.30;;;25.40;25.40;;;;;;5035544;28;20080;-45
2021/01/28 09:57:28;;;;;;;19.63;18.63;;;24.90;25.30;;;;;;5035421;28;20026;-44
2021/01/28 09:59:57;;;;;;;5.10;3.85;;;25.10;24.80;;;;;;5035388;28;20075;-45
2021/01/28 10:02:52;;;;;;;5.07;4.68;;;24.60;24.80;;;;;;5035383;28;20070;-45
2021/01/28 10:05:22;;;;;;;9.02;4.30;;;;;;;;;;5017311;28;20065;-44
2021/01/28 10:07:49;;;;;;;5.68;2.83;;;;;;;;;;5034919;28;20033;-44
2021/01/28 10:10:19;;;;;;;8.18;2.80;;;;;;;;;;5035527;28;20147;-45
2021/01/28 10:12:46;;;;;;;3.28;2.53;;;;;;;;;;4994896;28;20046;-45
2021/01/28 10:15:13;;;;;;;3.40;2.78;;;20.70;63.30;;;;;;5035113;28;20527;-44
2021/01/28 10:17:38;;;;;;;15.73;4.72;;;20.20;43.70;;;;;;4984379;28;20084;-44
2021/01/28 10:20:06;;;;;;;8.88;5.10;;;19.30;28.00;;;;;;4983941;28;20037;-44
2021/01/28 10:22:36;;;;;;;6.55;2.92;;;18.50;44.60;;;;;;4984432;28;20103;-46
2021/01/28 10:25:03;;;;;;;5.30;2.40;;;;;;;;;;4998595;28;20072;-45
2021/01/28 10:27:29;;;;;;;5.13;2.20;;;17.70;71.90;;;;;;5032895;28;20034;-41
2021/01/28 10:29:55;;;;;;;2.95;2.10;;;16.20;30.50;;;;;;5025595;28;20025;-46
2021/01/28 10:32:20;;;;;;;9.00;2.17;;;16.10;30.40;;;;;;5034779;28;20056;-48
2021/01/28 10:34:46;;;;;;;3.35;1.83;;;16.00;37.10;;;;;;5000053;28;20044;-45
2021/01/28 10:37:12;;;;;;;11.65;3.05;;;15.80;30.20;;;;;;4999753;28;20034;-44
2021/01/28 10:39:38;;;;;;;4.30;1.73;;;15.60;32.30;;;;;;4999284;28;20041;-45
2021/01/28 10:42:05;;;;;;;3.70;2.60;;;15.30;31.90;;;;;;5034183;28;20450;-44
2021/01/28 10:44:30;;;;;;;9.07;1.70;;;15.10;31.50;;;;;;4999391;28;20084;-45
2021/01/28 10:46:57;;;;;;;5.95;2.92;;;15.00;31.50;;;;;;5009598;28;20533;-46
2021/01/28 10:49:23;;;;;;;6.97;1.90;;;;;;;;;;5030561;28;20037;-46
2021/01/28 10:51:49;;;;;;;2.38;1.17;;;14.70;54.00;;;;;;5033165;28;20408;-45
2021/01/28 10:54:16;;;;;;;3.08;1.30;;;14.40;33.10;;;;;;4998229;28;20029;-45
2021/01/28 10:56:42;;;;;;;2.88;1.42;;;14.30;33.00;;;;;;4997980;28;20400;-46
2021/01/28 10:59:09;;;;;;;5.80;3.17;;;14.30;34.00;;;;;;5033130;28;20026;-44
2021/01/28 11:01:35;;;;;;;3.50;1.70;;;14.30;34.40;;;;;;5033018;28;20037;-45
2021/01/28 11:04:01;;;;;;;4.03;1.90;;;14.20;34.50;;;;;;5032711;28;20017;-46
2021/01/28 11:06:26;;;;;;;5.10;1.90;;;14.00;34.60;;;;;;5033050;28;20075;-44
2021/01/28 11:08:52;;;;;;;4.85;2.17;;;13.90;35.60;;;;;;5032938;28;20488;-46
2021/01/28 11:11:18;;;;;;;2.05;1.50;;;14.00;35.80;;;;;;5032853;28;20064;-44
2021/01/28 11:13:44;;;;;;;15.77;4.03;;;14.00;34.10;;;;;;4981914;28;20124;-46
2021/01/28 11:16:11;;;;;;;3.50;1.88;;;14.00;36.10;;;;;;5032731;28;20026;-45
2021/01/28 11:18:37;;;;;;;4.00;2.10;;;14.20;35.00;;;;;;5032765;28;20038;-45
2021/01/28 11:21:04;;;;;;;4.28;1.70;;;14.20;34.50;;;;;;5032613;28;20069;-45
2021/01/28 11:23:29;;;;;;;10.60;3.60;;;14.30;34.50;;;;;;5032681;28;20053;-46
2021/01/28 11:25:55;;;;;;;3.80;2.65;;;13.90;34.30;;;;;;5032597;28;20057;-45
2021/01/28 11:28:24;;;;;;;9.95;5.57;;;14.20;35.30;;;;;;5014586;28;20021;-43
2021/01/28 11:30:50;;;;;;;4.28;2.78;;;14.10;34.90;;;;;;5032148;28;20041;-46
2021/01/28 11:33:16;;;;;;;10.40;5.55;;;14.00;34.00;;;;;;5014645;28;20033;-44
2021/01/28 11:35:41;;;;;;;14.27;7.10;;;13.90;34.00;;;;;;5032292;28;20030;-46
2021/01/28 11:38:08;;;;;;;17.38;11.15;;;13.30;39.10;;;;;;5039209;28;20036;-44
2021/01/28 11:40:35;;;;;;;34.35;6.80;;;12.90;37.60;;;;;;5052339;28;20502;-46
2021/01/28 11:43:04;;;;;;;8.27;3.30;;;13.40;37.30;;;;;;5051931;28;20040;-45
2021/01/28 11:45:32;;;;;;;5.68;3.30;;;;;;;;;;5052313;28;20167;-45
2021/01/28 11:47:58;;;;;;;6.93;4.72;;;14.00;34.90;;;;;;5052006;28;20511;-44
2021/01/28 11:50:24;;;;;;;14.15;10.07;;;14.30;34.80;;;;;;5052326;28;20036;-44
2021/01/28 11:52:50;;;;;;;13.75;9.65;;;14.30;33.50;;;;;;5052181;28;20423;-44
2021/01/28 11:55:19;;;;;;;26.70;8.30;;;14.80;36.20;;;;;;4975357;28;20097;-44
2021/01/28 11:57:45;;;;;;;12.45;5.20;;;15.60;36.60;;;;;;4938514;28;20157;-43
2021/01/28 12:00:13;;;;;;;8.35;5.88;;;16.30;34.80;;;;;;4970794;28;20117;-47
2021/01/28 12:02:40;;;;;;;32.88;16.85;;;16.30;32.70;;;;;;4951596;29;20462;-47
2021/01/28 12:05:08;;;;;;;6.18;2.22;;;16.10;32.50;;;;;;4951622;29;20122;-47
2021/01/28 12:07:34;;;;;;;3.47;1.80;;;16.00;31.30;;;;;;4953931;28;20820;-46
2021/01/28 12:10:00;;;;;;;3.13;1.38;;;15.40;31.40;;;;;;4970940;28;20035;-46
2021/01/28 12:12:25;;;;;;;6.70;1.90;;;15.20;32.00;;;;;;4981595;28;20490;-45
2021/01/28 12:14:51;;;;;;;2.92;1.75;;;14.90;32.40;;;;;;4990284;28;20089;-47
2021/01/28 12:17:17;;;;;;;4.55;2.67;;;14.60;33.20;;;;;;4990496;28;20478;-46
2021/01/28 12:19:42;;;;;;;5.45;2.70;;;14.30;33.90;;;;;;4990093;28;20038;-46
2021/01/28 12:22:08;;;;;;;15.50;5.53;;;14.10;34.50;;;;;;4990056;28;20046;-48
2021/01/28 12:24:34;;;;;;;3.95;2.30;;;13.80;34.80;;;;;;4990429;28;20045;-47
2021/01/28 12:27:01;;;;;;;7.38;3.72;;;13.60;34.90;;;;;;4973499;28;20069;-47
2021/01/28 12:29:27;;;;;;;2.85;1.85;;;13.30;35.00;;;;;;5009746;28;20041;-47
2021/01/28 12:31:53;;;;;;;5.65;2.20;;;12.90;36.00;;;;;;5009766;28;20456;-48
2021/01/28 12:34:19;;;;;;;13.93;5.30;;;12.80;37.20;;;;;;5009603;28;20038;-46
2021/01/28 12:36:46;;;;;;;18.80;6.75;;;12.70;36.20;;;;;;4992976;28;20404;-45
2021/01/28 12:39:13;;;;;;;6.88;2.72;;;12.80;37.20;;;;;;5015862;28;20041;-46
2021/01/28 12:41:38;;;;;;;12.85;10.27;;;12.80;36.40;;;;;;5051784;28;20112;-46
2021/01/28 12:44:04;;;;;;;3.88;2.60;;;12.80;37.30;;;;;;5051804;28;20117;-46
2021/01/28 12:46:30;;;;;;;8.15;5.38;;;12.80;37.70;;;;;;5051631;28;20473;-48
2021/01/28 12:48:56;;;;;;;21.65;10.40;;;12.90;37.60;;;;;;5053747;28;20033;-46
2021/01/28 12:51:22;;;;;;;8.77;4.65;;;13.10;37.30;;;;;;5055366;28;20029;-46
2021/01/28 12:53:47;;;;;;;4.47;2.47;;;13.30;35.60;;;;;;5055653;28;20388;-45
2021/01/28 12:56:15;;;;;;;9.18;3.08;;;13.60;36.50;;;;;;5055361;28;20025;-48
2021/01/28 12:58:40;;;;;;;9.48;4.57;;;13.80;35.80;;;;;;5055407;28;20036;-47
2021/01/28 13:01:06;;;;;;;6.22;4.25;;;14.20;34.80;;;;;;5055070;28;20480;-47
2021/01/28 13:03:32;;;;;;;6.28;2.63;;;14.50;34.80;;;;;;5019922;28;20488;-48
2021/01/28 13:05:58;;;;;;;4.85;3.10;;;14.70;34.60;;;;;;5055208;28;20086;-47
2021/01/28 13:08:24;;;;;;;3.38;2.60;;;14.90;34.10;;;;;;5055252;28;20440;-47
2021/01/28 13:10:50;;;;;;;8.93;3.13;;;15.10;33.50;;;;;;5055292;28;20029;-48
2021/01/28 13:13:16;;;;;;;7.43;4.60;;;15.30;32.90;;;;;;5015497;28;20056;-45
2021/01/28 13:15:42;;;;;;;6.15;4.88;;;15.30;33.10;;;;;;5003271;28;20098;-48
2021/01/28 13:18:08;;;;;;;5.90;4.38;;;14.70;33.60;;;;;;5019827;28;20041;-46